Time;durP1;ratioP1;P1;durP2;ratioP2;P2;SDS_P1;SDS_P2;PMS_P1;PMS_P2;Temp;Humidity;BMP_temperature;BMP_pressure;BME280_temperature;BME280_humidity;BME280_pressure;Samples;Min_cycle;Max_cycle;Signal;HPM_P1;HPM_P2
2022/11/10 00:01:04;;;;;;;1.50;1.40;;;11.10;99.90;;;;;;5065097;28;20216;-66
2022/11/10 00:03:31;;;;;;;1.35;1.17;;;11.10;99.90;;;;;;5064969;28;20630;-66
2022/11/10 00:05:58;;;;;;;1.00;0.90;;;11.00;99.90;;;;;;5064565;28;20221;-66
2022/11/10 00:08:26;;;;;;;2.00;1.38;;;11.00;99.90;;;;;;5064786;28;20201;-65
2022/11/10 00:11:00;;;;;;;1.10;0.95;;;11.00;99.90;;;;;;5064697;28;20737;-66
2022/11/10 00:13:30;;;;;;;1.30;1.20;;;11.00;99.90;;;;;;5065502;28;20209;-66
2022/11/10 00:18:43;;;;;;;1.58;1.42;;;11.00;99.90;;;;;;5071964;28;20204;-66
2022/11/10 00:21:11;;;;;;;1.45;1.17;;;11.00;99.90;;;;;;5071164;28;20204;-66
2022/11/10 00:23:39;;;;;;;2.03;1.40;;;11.00;99.90;;;;;;5071553;28;20205;-66
2022/11/10 00:26:13;;;;;;;1.55;1.10;;;11.00;99.90;;;;;;5071138;28;20510;-66
2022/11/10 00:28:40;;;;;;;1.10;1.00;;;11.00;99.90;;;;;;5071999;28;20254;-66
2022/11/10 00:31:08;;;;;;;1.45;1.23;;;11.00;99.90;;;;;;5070898;28;20205;-66
2022/11/10 00:33:35;;;;;;;1.20;1.10;;;10.90;99.90;;;;;;5071425;28;20207;-66
2022/11/10 00:36:03;;;;;;;1.15;1.05;;;10.90;99.90;;;;;;5072017;28;20247;-66
2022/11/10 00:38:29;;;;;;;1.63;1.20;;;10.90;99.90;;;;;;5071189;28;20274;-65
2022/11/10 00:40:59;;;;;;;1.60;1.20;;;10.90;99.90;;;;;;5070476;28;20201;-66
2022/11/10 00:43:26;;;;;;;1.20;1.10;;;10.90;99.90;;;;;;5070782;28;20212;-66
2022/11/10 00:45:54;;;;;;;3.58;1.20;;;10.90;99.90;;;;;;5071367;28;20715;-67
2022/11/10 00:48:20;;;;;;;5.03;1.30;;;10.90;99.90;;;;;;5071126;28;20726;-66
2022/11/10 00:53:17;;;;;;;1.80;1.50;;;10.90;99.90;;;;;;5032488;28;20216;-65
2022/11/10 00:55:44;;;;;;;1.10;1.00;;;10.90;99.90;;;;;;5051810;28;20227;-65
2022/11/10 00:58:13;;;;;;;1.35;1.25;;;10.80;99.90;;;;;;5051986;28;20197;-65
2022/11/10 01:00:40;;;;;;;1.98;1.38;;;10.80;99.90;;;;;;5050904;28;20213;-66
2022/11/10 01:03:07;;;;;;;1.85;1.30;;;10.80;99.90;;;;;;5051417;28;20209;-66
2022/11/10 01:05:37;;;;;;;1.95;1.20;;;10.80;99.90;;;;;;5052017;28;20248;-66
2022/11/10 01:08:04;;;;;;;1.50;1.00;;;10.80;99.90;;;;;;5051012;28;20225;-66
2022/11/10 01:10:31;;;;;;;1.40;1.30;;;10.70;99.90;;;;;;5051075;28;20210;-66
2022/11/10 01:13:01;;;;;;;1.27;1.17;;;10.70;99.90;;;;;;5051001;28;20235;-65
2022/11/10 01:15:30;;;;;;;2.10;1.27;;;10.70;99.90;;;;;;5051452;28;20236;-65
2022/11/10 01:17:57;;;;;;;1.45;1.35;;;10.70;99.90;;;;;;5050661;28;20205;-66
2022/11/10 01:20:24;;;;;;;2.30;1.50;;;10.70;99.90;;;;;;5051479;28;20202;-66
2022/11/10 01:22:51;;;;;;;1.45;1.10;;;10.70;99.90;;;;;;5050576;28;20206;-65
2022/11/10 01:25:18;;;;;;;1.17;1.08;;;10.70;99.90;;;;;;5050682;28;20225;-65
2022/11/10 01:27:45;;;;;;;1.67;1.40;;;10.70;99.90;;;;;;5049525;28;20233;-66
2022/11/10 01:30:12;;;;;;;1.42;1.30;;;10.70;99.90;;;;;;5046848;28;20202;-66
2022/11/10 01:32:40;;;;;;;1.85;1.38;;;10.70;99.90;;;;;;5049047;28;20209;-65
2022/11/10 01:35:08;;;;;;;1.67;1.27;;;10.70;99.90;;;;;;5049900;28;20610;-66
2022/11/10 01:37:35;;;;;;;1.90;1.70;;;10.70;99.90;;;;;;5052893;28;20209;-66
2022/11/10 01:40:01;;;;;;;1.50;1.40;;;10.70;99.90;;;;;;5051911;28;20607;-66
2022/11/10 01:42:40;;;;;;;1.30;1.20;;;10.70;99.90;;;;;;5051148;28;20296;-65
2022/11/10 01:45:41;;;;;;;1.60;1.45;;;10.70;99.90;;;;;;5052650;28;20236;-66
2022/11/10 01:48:13;;;;;;;1.35;1.25;;;10.70;99.90;;;;;;5051554;28;20221;-66
2022/11/10 01:50:43;;;;;;;2.05;1.40;;;10.60;99.90;;;;;;5051769;28;20209;-66
2022/11/10 01:53:15;;;;;;;1.30;1.20;;;10.60;99.90;;;;;;5051524;28;20206;-66
2022/11/10 01:55:44;;;;;;;1.75;1.30;;;10.60;99.90;;;;;;5051295;28;20237;-66
2022/11/10 01:58:13;;;;;;;2.78;1.33;;;10.60;99.90;;;;;;5125479;22;20331;-65
2022/11/10 02:03:14;;;;;;;1.23;1.13;;;10.50;99.90;;;;;;5012116;28;20230;-68
2022/11/10 02:05:43;;;;;;;3.72;3.28;;;10.50;99.90;;;;;;5013382;28;20223;-68
2022/11/10 02:08:15;;;;;;;2.75;1.58;;;10.50;99.90;;;;;;5032454;28;20222;-68
2022/11/10 02:10:42;;;;;;;1.40;1.10;;;10.50;99.90;;;;;;5032158;28;20705;-68
2022/11/10 02:13:08;;;;;;;1.50;1.40;;;10.40;99.90;;;;;;5032617;28;20210;-68
2022/11/10 02:15:35;;;;;;;1.55;1.25;;;10.40;99.90;;;;;;5031996;28;20229;-69
2022/11/10 02:18:02;;;;;;;3.15;1.50;;;10.40;99.90;;;;;;5032681;28;20194;-69
2022/11/10 02:20:30;;;;;;;1.60;1.00;;;10.40;99.90;;;;;;5031499;28;20202;-68
2022/11/10 02:22:58;;;;;;;1.45;1.35;;;10.40;99.90;;;;;;5032148;28;20206;-68
2022/11/10 02:25:30;;;;;;;1.40;1.27;;;10.30;99.90;;;;;;5032043;28;20222;-68
2022/11/10 02:27:56;;;;;;;1.45;1.35;;;10.30;99.90;;;;;;5032523;28;20229;-68
2022/11/10 02:30:23;;;;;;;1.50;1.40;;;10.20;99.90;;;;;;5031676;28;20221;-68
2022/11/10 02:32:50;;;;;;;2.65;1.30;;;10.20;99.90;;;;;;5032468;28;20213;-68
2022/11/10 02:35:17;;;;;;;1.92;1.45;;;10.10;99.90;;;;;;5032000;28;20226;-68
2022/11/10 02:37:44;;;;;;;2.05;1.20;;;10.00;99.90;;;;;;5031987;28;20221;-67
2022/11/10 02:40:12;;;;;;;1.42;1.33;;;9.90;99.90;;;;;;5031695;28;20213;-68
2022/11/10 02:42:39;;;;;;;2.80;1.40;;;9.90;99.90;;;;;;5031806;28;20206;-68
2022/11/10 02:45:07;;;;;;;3.15;1.83;;;9.80;99.90;;;;;;5032057;28;20242;-68
2022/11/10 02:47:34;;;;;;;2.25;1.27;;;9.80;99.90;;;;;;5031884;28;20324;-68
2022/11/10 02:50:01;;;;;;;1.42;1.33;;;9.70;99.90;;;;;;5032038;28;20206;-68
2022/11/10 02:52:27;;;;;;;1.88;1.48;;;9.60;99.90;;;;;;5030951;28;20203;-68
2022/11/10 02:54:54;;;;;;;1.60;1.50;;;9.50;99.90;;;;;;5031931;28;20237;-67
2022/11/10 02:57:22;;;;;;;1.95;1.25;;;9.50;99.90;;;;;;5031760;28;20205;-67
2022/11/10 02:59:49;;;;;;;1.20;1.10;;;9.50;99.90;;;;;;5031828;28;20205;-67
2022/11/10 03:02:15;;;;;;;1.45;1.25;;;9.40;99.90;;;;;;5031091;28;20214;-68
2022/11/10 03:04:42;;;;;;;1.70;1.50;;;9.40;99.90;;;;;;5031559;28;20261;-68
2022/11/10 03:07:09;;;;;;;2.08;1.40;;;9.30;99.90;;;;;;5031497;28;20728;-68
2022/11/10 03:09:36;;;;;;;1.42;1.17;;;9.30;99.90;;;;;;5031397;28;20209;-68
2022/11/10 03:12:02;;;;;;;1.25;1.15;;;9.30;99.90;;;;;;5031114;28;20213;-68
2022/11/10 03:14:31;;;;;;;1.80;1.45;;;9.20;99.90;;;;;;5031312;28;20210;-68
2022/11/10 03:16:57;;;;;;;1.42;1.33;;;9.20;99.90;;;;;;5031395;28;20228;-68
2022/11/10 03:19:24;;;;;;;1.63;1.25;;;9.10;99.90;;;;;;5031237;28;20202;-67
2022/11/10 03:21:51;;;;;;;1.38;1.08;;;9.10;99.90;;;;;;5030917;28;20199;-67
2022/11/10 03:24:17;;;;;;;2.25;1.50;;;9.00;99.90;;;;;;5031330;28;20747;-68
2022/11/10 03:26:44;;;;;;;1.55;1.33;;;9.00;99.90;;;;;;5031437;28;20202;-68
2022/11/10 03:29:11;;;;;;;1.48;1.25;;;8.90;99.90;;;;;;5031120;28;20259;-67
2022/11/10 03:31:39;;;;;;;1.85;1.75;;;8.90;99.90;;;;;;5030643;28;20206;-67
2022/11/10 03:34:06;;;;;;;1.38;1.17;;;8.80;99.90;;;;;;5031345;28;20216;-67
2022/11/10 03:36:32;;;;;;;1.60;1.13;;;8.80;99.90;;;;;;5031035;28;20233;-68
2022/11/10 03:38:59;;;;;;;1.30;1.00;;;8.80;99.90;;;;;;5031225;28;20206;-68
2022/11/10 03:41:26;;;;;;;1.75;1.40;;;8.80;99.90;;;;;;5030641;28;20206;-68
2022/11/10 03:43:53;;;;;;;1.75;1.55;;;8.70;99.90;;;;;;5031226;28;20206;-68
2022/11/10 03:46:20;;;;;;;1.58;1.40;;;8.60;99.90;;;;;;5030920;28;20578;-67
2022/11/10 03:48:48;;;;;;;1.20;1.10;;;8.60;99.90;;;;;;5030869;28;20221;-68
2022/11/10 03:51:15;;;;;;;2.00;1.58;;;8.50;99.90;;;;;;5029869;28;20198;-67
2022/11/10 03:53:41;;;;;;;3.20;1.55;;;8.50;99.90;;;;;;5030819;28;20208;-68
2022/11/10 03:56:08;;;;;;;1.80;1.45;;;8.40;99.90;;;;;;5030965;28;20225;-68
2022/11/10 03:58:35;;;;;;;1.50;1.40;;;8.40;99.90;;;;;;5030822;28;20868;-68
2022/11/10 04:01:02;;;;;;;2.00;1.42;;;8.40;99.90;;;;;;5030134;28;20206;-68
2022/11/10 04:03:29;;;;;;;1.75;1.25;;;8.30;99.90;;;;;;5030676;28;20216;-68
2022/11/10 04:08:59;;;;;;;1.60;1.13;;;8.20;99.90;;;;;;5030403;28;20311;-68
2022/11/10 04:16:55;;;;;;;2.65;1.20;;;8.00;99.90;;;;;;5030675;28;20221;-68
2022/11/10 04:19:22;;;;;;;1.98;1.30;;;8.00;99.90;;;;;;5030335;28;20207;-68
2022/11/10 04:21:50;;;;;;;1.83;1.40;;;7.90;99.90;;;;;;5030092;28;20212;-67
2022/11/10 04:24:17;;;;;;;2.97;1.70;;;7.90;99.90;;;;;;5030497;28;20203;-68
2022/11/10 04:26:46;;;;;;;1.60;1.30;;;7.90;99.90;;;;;;5030586;28;20208;-68
2022/11/10 04:29:13;;;;;;;1.50;1.20;;;7.80;99.90;;;;;;5030043;28;20231;-68
2022/11/10 04:31:41;;;;;;;1.42;1.30;;;7.80;99.90;;;;;;5029706;28;20204;-68
2022/11/10 04:34:10;;;;;;;3.13;1.60;;;7.80;99.90;;;;;;5030336;28;20206;-68
2022/11/10 04:36:39;;;;;;;1.20;1.10;;;7.70;99.90;;;;;;5030142;28;20226;-68
2022/11/10 04:39:07;;;;;;;1.65;1.52;;;7.70;99.90;;;;;;5023575;28;20197;-67
2022/11/10 04:41:35;;;;;;;1.20;1.10;;;7.70;99.90;;;;;;5009249;28;20204;-69
2022/11/10 04:44:02;;;;;;;2.00;1.58;;;7.70;99.90;;;;;;5010051;28;20202;-68
2022/11/10 04:46:31;;;;;;;1.90;1.60;;;7.60;99.90;;;;;;5019506;28;20217;-67
2022/11/10 04:48:58;;;;;;;1.40;1.30;;;7.60;99.90;;;;;;5027148;28;20215;-68
2022/11/10 04:51:27;;;;;;;3.40;1.77;;;7.60;99.90;;;;;;5029261;28;20299;-69
2022/11/10 04:53:54;;;;;;;4.45;1.58;;;7.50;99.90;;;;;;5029755;28;20219;-69
2022/11/10 04:56:24;;;;;;;1.55;1.45;;;7.50;99.90;;;;;;5030020;28;20216;-67
2022/11/10 04:58:51;;;;;;;1.48;1.23;;;7.50;99.90;;;;;;5026925;28;20666;-67
2022/11/10 05:01:19;;;;;;;1.70;1.60;;;7.50;99.90;;;;;;5009280;28;20213;-68
2022/11/10 05:03:47;;;;;;;1.63;1.33;;;7.40;99.90;;;;;;5018393;28;20217;-69
2022/11/10 05:06:15;;;;;;;1.83;1.40;;;7.40;99.90;;;;;;5023706;28;20227;-69
2022/11/10 05:08:42;;;;;;;3.47;1.38;;;7.30;99.90;;;;;;5022080;28;20224;-68
2022/11/10 05:11:10;;;;;;;2.00;1.40;;;7.30;99.90;;;;;;5021437;28;20200;-68
2022/11/10 05:13:38;;;;;;;2.05;1.65;;;7.30;99.90;;;;;;5026761;28;20201;-68
2022/11/10 05:16:05;;;;;;;1.45;1.35;;;7.30;99.90;;;;;;5021822;28;20228;-68
2022/11/10 05:18:32;;;;;;;1.90;1.65;;;7.20;99.90;;;;;;5023332;28;20209;-68
2022/11/10 05:20:59;;;;;;;1.88;1.55;;;7.20;99.90;;;;;;5029075;28;20204;-67
2022/11/10 05:23:38;;;;;;;2.17;1.33;;;7.10;99.90;;;;;;5033028;28;20221;-66
2022/11/10 05:26:06;;;;;;;1.48;1.20;;;7.10;99.90;;;;;;5030311;28;20226;-68
2022/11/10 05:28:33;;;;;;;1.45;1.25;;;7.10;99.90;;;;;;5026881;28;20259;-67
2022/11/10 05:31:01;;;;;;;2.08;1.40;;;7.10;99.90;;;;;;5012775;28;20211;-68
2022/11/10 05:33:27;;;;;;;4.15;3.20;;;7.00;99.90;;;;;;5013604;28;20202;-68
2022/11/10 05:35:54;;;;;;;3.60;2.60;;;7.00;99.90;;;;;;5013502;28;20227;-67
2022/11/10 05:38:21;;;;;;;2.60;2.40;;;7.00;99.90;;;;;;5013550;28;20305;-68
2022/11/10 05:40:48;;;;;;;7.30;2.65;;;7.00;99.90;;;;;;5012823;28;20688;-68
2022/11/10 05:43:15;;;;;;;3.45;2.40;;;7.00;99.90;;;;;;5013731;28;20870;-69
2022/11/10 05:45:42;;;;;;;2.70;2.50;;;7.00;99.90;;;;;;5013750;28;20280;-69
2022/11/10 05:48:10;;;;;;;3.03;1.60;;;7.00;99.90;;;;;;5013408;28;20223;-69
2022/11/10 05:50:37;;;;;;;1.90;1.73;;;7.00;99.90;;;;;;5013025;28;20210;-69
2022/11/10 05:53:04;;;;;;;3.28;2.40;;;6.90;99.90;;;;;;5013514;28;20307;-68
2022/11/10 05:55:30;;;;;;;1.80;1.60;;;6.90;99.90;;;;;;5013293;28;20229;-68
2022/11/10 05:57:57;;;;;;;1.98;1.63;;;6.90;99.90;;;;;;5013152;28;20667;-72
2022/11/10 06:00:26;;;;;;;1.40;1.30;;;6.80;99.90;;;;;;5012837;28;20206;-67
2022/11/10 06:02:58;;;;;;;1.65;1.42;;;6.80;99.90;;;;;;5013046;28;20657;-67
2022/11/10 06:05:26;;;;;;;4.35;1.45;;;6.70;99.90;;;;;;5013160;28;20226;-68
2022/11/10 06:07:53;;;;;;;1.70;1.60;;;6.70;99.90;;;;;;5013011;28;20214;-66
2022/11/10 06:10:20;;;;;;;1.85;1.70;;;6.70;99.90;;;;;;5012574;28;20203;-67
2022/11/10 06:12:47;;;;;;;2.22;1.75;;;6.70;99.90;;;;;;5012879;28;20203;-67
2022/11/10 06:17:58;;;;;;;2.05;1.63;;;6.60;99.90;;;;;;4415420;26;20215;-92
2022/11/10 06:54:06;;;;;;;3.42;2.25;;;6.60;99.90;;;;;;1502894;26;20184;-94
2022/11/10 06:56:33;;;;;;;7.32;2.50;;;6.60;99.90;;;;;;5111610;28;20182;-94
2022/11/10 06:59:00;;;;;;;2.38;2.17;;;6.60;99.90;;;;;;5118786;28;20244;-94
2022/11/10 07:01:28;;;;;;;2.38;2.00;;;6.60;99.90;;;;;;5107913;28;20193;-92
2022/11/10 07:03:58;;;;;;;2.88;2.25;;;6.70;99.90;;;;;;5098623;28;20209;-92
2022/11/10 07:06:25;;;;;;;3.95;2.15;;;6.70;99.90;;;;;;5098465;28;20181;-93
2022/11/10 07:09:02;;;;;;;2.13;1.90;;;6.80;99.90;;;;;;5098147;28;20197;-93
2022/11/10 07:11:41;;;;;;;5.78;2.17;;;6.80;99.90;;;;;;5098511;28;20192;-93
2022/11/10 07:14:10;;;;;;;1.75;1.25;;;6.90;99.90;;;;;;5098096;28;20192;-94
2022/11/10 07:16:40;;;;;;;2.92;2.20;;;7.00;99.90;;;;;;5096789;28;20201;-94
2022/11/10 07:19:07;;;;;;;3.65;2.03;;;7.10;99.90;;;;;;5088519;28;20197;-92
2022/11/10 07:21:34;;;;;;;2.40;2.15;;;7.20;99.90;;;;;;5089163;28;20186;-94
2022/11/10 07:24:03;;;;;;;2.10;1.90;;;7.30;99.90;;;;;;5087148;28;20201;-94
2022/11/10 07:26:31;;;;;;;2.15;1.95;;;7.40;99.90;;;;;;5079828;28;20235;-94
2022/11/10 07:28:59;;;;;;;1.60;1.45;;;7.50;99.90;;;;;;5077787;28;20219;-94
2022/11/10 07:31:26;;;;;;;2.35;2.15;;;7.60;99.90;;;;;;5192784;22;20308;-93
2022/11/10 07:33:53;;;;;;;2.53;1.48;;;7.90;99.90;;;;;;5069554;28;20201;-94
2022/11/10 07:36:22;;;;;;;2.70;2.50;;;8.50;99.90;;;;;;5077912;28;20187;-93
2022/11/10 07:38:49;;;;;;;5.18;2.30;;;8.90;99.90;;;;;;5077873;28;20257;-93
2022/11/10 07:41:16;;;;;;;3.08;1.85;;;9.30;99.90;;;;;;5077444;28;20196;-94
2022/11/10 07:43:44;;;;;;;1.83;1.70;;;9.50;99.90;;;;;;5077839;28;20178;-93
2022/11/10 07:46:11;;;;;;;2.97;2.20;;;9.50;99.90;;;;;;5077520;28;20264;-93
2022/11/10 07:48:38;;;;;;;2.10;1.80;;;9.50;99.90;;;;;;5077684;28;20218;-93
2022/11/10 07:51:05;;;;;;;2.95;1.95;;;9.40;99.90;;;;;;5077236;28;20197;-93
2022/11/10 07:53:32;;;;;;;2.67;1.60;;;9.30;99.90;;;;;;5077619;28;20200;-93
2022/11/10 07:55:59;;;;;;;1.95;1.75;;;9.20;99.90;;;;;;5077573;28;20197;-93
2022/11/10 07:58:26;;;;;;;2.08;1.63;;;9.10;99.90;;;;;;5077554;28;20192;-93
2022/11/10 08:03:48;;;;;;;2.75;2.05;;;9.20;99.90;;;;;;4981248;28;20227;-94
2022/11/10 08:10:26;;;;;;;;;;;;;;;;;;;;;
2022/11/10 08:12:56;;;;;;;1.48;1.38;;;10.80;99.90;;;;;;4888354;28;20279;-94
2022/11/10 08:15:24;;;;;;;1.40;1.30;;;11.50;99.90;;;;;;5035810;28;20645;-93
2022/11/10 08:17:57;;;;;;;1.83;1.50;;;12.10;99.90;;;;;;5034901;28;20285;-94
2022/11/10 08:20:24;;;;;;;1.70;1.38;;;12.80;99.90;;;;;;5034339;28;20639;-94
2022/11/10 08:22:57;;;;;;;2.10;1.90;;;13.70;99.90;;;;;;5034489;28;20733;-92
2022/11/10 08:25:24;;;;;;;1.53;1.33;;;14.90;99.90;;;;;;5034744;28;20309;-94
